Time;durP1;ratioP1;P1;durP2;ratioP2;P2;SDS_P1;SDS_P2;PMS_P1;PMS_P2;Temp;Humidity;BMP_temperature;BMP_pressure;BME280_temperature;BME280_humidity;BME280_pressure;Samples;Min_cycle;Max_cycle;Signal;HPM_P1;HPM_P2
2022/02/18 00:02:19;;;;;;;3.20;1.10;;;;;;;5.68;64.73;100093.08;108403;1274;58299;-78
2022/02/18 00:04:45;;;;;;;6.60;0.90;;;;;;;5.69;64.87;100090.98;108382;1273;58334;-79
2022/02/18 00:07:12;;;;;;;2.70;0.90;;;;;;;5.72;64.98;100088.10;108398;1274;58327;-77
2022/02/18 00:09:38;;;;;;;4.50;0.80;;;;;;;5.74;65.59;100093.70;108414;1273;58752;-79
2022/02/18 00:12:05;;;;;;;8.90;1.10;;;;;;;5.75;66.25;100098.88;108356;1274;58666;-78
2022/02/18 00:14:32;;;;;;;5.10;0.90;;;;;;;5.76;66.73;100104.40;108386;1274;74225;-77
2022/02/18 00:16:59;;;;;;;10.60;1.30;;;;;;;5.77;67.02;100119.01;108346;1273;60784;-77
2022/02/18 00:19:26;;;;;;;2.30;0.70;;;;;;;5.78;67.28;100121.70;108368;1273;60313;-77
2022/02/18 00:21:52;;;;;;;3.80;1.00;;;;;;;5.79;67.30;100135.14;108378;1273;75693;-77
2022/02/18 00:24:19;;;;;;;2.90;1.00;;;;;;;5.81;67.14;100133.34;108379;1272;72914;-78
2022/02/18 00:26:45;;;;;;;6.70;1.00;;;;;;;5.80;66.54;100134.55;108305;1274;72523;-78
2022/02/18 00:29:12;;;;;;;8.50;0.80;;;;;;;5.78;66.21;100126.13;108345;1265;61434;-78
2022/02/18 00:31:39;;;;;;;5.70;0.80;;;;;;;5.76;66.25;100136.91;108375;1274;58332;-78
2022/02/18 00:34:08;;;;;;;4.30;0.60;;;;;;;5.73;66.56;100139.75;108410;1273;74186;-78
2022/02/18 00:36:35;;;;;;;5.70;0.70;;;;;;;5.70;66.91;100134.10;108470;1272;72422;-77
2022/02/18 00:39:02;;;;;;;4.30;1.00;;;;;;;5.67;67.00;100133.84;108493;1271;74321;-77
2022/02/18 00:41:28;;;;;;;6.20;1.10;;;;;;;5.64;67.36;100139.94;108427;1273;59769;-78
2022/02/18 00:43:55;;;;;;;4.10;0.70;;;;;;;5.63;67.59;100139.73;108414;1274;58473;-78
2022/02/18 00:46:22;;;;;;;2.70;0.60;;;;;;;5.62;67.91;100132.79;108517;1273;73775;-78
2022/02/18 00:48:48;;;;;;;3.70;1.00;;;;;;;5.61;68.25;100134.89;108329;1274;71855;-78
2022/02/18 00:51:15;;;;;;;5.70;1.30;;;;;;;5.59;68.57;100138.37;108408;1273;72703;-78
2022/02/18 00:53:41;;;;;;;5.10;1.20;;;;;;;5.56;69.20;100142.17;108400;1273;61654;-78
2022/02/18 00:56:09;;;;;;;7.80;1.70;;;;;;;5.54;70.80;100144.19;108374;1274;61028;-78
2022/02/18 00:58:36;;;;;;;3.00;0.90;;;;;;;5.53;71.71;100151.81;108347;1273;75119;-78
2022/02/18 01:01:02;;;;;;;9.00;1.10;;;;;;;5.50;73.08;100152.58;108417;1272;58380;-79
2022/02/18 01:03:29;;;;;;;6.40;1.00;;;;;;;5.50;73.61;100148.79;108391;1273;73115;-78
2022/02/18 01:05:56;;;;;;;3.60;1.20;;;;;;;5.48;73.88;100150.73;108311;1274;61079;-77
2022/02/18 01:08:22;;;;;;;8.90;2.60;;;;;;;5.46;74.96;100146.92;108368;1273;59089;-78
2022/02/18 01:10:48;;;;;;;5.70;1.40;;;;;;;5.42;76.49;100143.92;108397;1273;59185;-77
2022/02/18 01:13:15;;;;;;;3.60;1.20;;;;;;;5.36;78.06;100145.27;108268;1274;59158;-78
2022/02/18 01:15:41;;;;;;;5.20;0.80;;;;;;;5.31;78.90;100157.89;108374;1273;59208;-78
2022/02/18 01:18:08;;;;;;;6.80;1.00;;;;;;;5.25;79.84;100159.50;108349;1274;59106;-78
2022/02/18 01:20:34;;;;;;;5.70;0.90;;;;;;;5.21;80.26;100156.96;108342;1274;58653;-78
2022/02/18 01:23:02;;;;;;;8.50;1.10;;;;;;;5.15;81.53;100159.84;108344;1273;59302;-78
2022/02/18 01:25:29;;;;;;;3.10;1.30;;;;;;;5.06;83.41;100153.31;108377;1273;74197;-79
2022/02/18 01:27:56;;;;;;;4.40;1.30;;;;;;;4.97;85.11;100153.91;108275;1274;72940;-78
2022/02/18 01:30:25;;;;;;;4.70;0.80;;;;;;;4.88;86.37;100138.34;108330;1273;62194;-78
2022/02/18 01:32:52;;;;;;;5.40;1.50;;;;;;;4.80;87.02;100143.27;108305;1274;61477;-78
2022/02/18 01:35:19;;;;;;;4.00;1.30;;;;;;;4.72;87.91;100140.92;108293;1274;76163;-79
2022/02/18 01:37:49;;;;;;;2.60;1.10;;;;;;;4.66;88.59;100140.81;108290;1273;72624;-78
2022/02/18 01:40:15;;;;;;;2.60;1.00;;;;;;;4.60;89.05;100130.51;108279;1274;73180;-79
2022/02/18 01:42:42;;;;;;;3.80;0.90;;;;;;;4.55;89.54;100127.15;108345;1274;61797;-78
2022/02/18 01:45:09;;;;;;;2.40;0.80;;;;;;;4.52;89.91;100134.73;108373;1273;59559;-79
2022/02/18 01:47:37;;;;;;;3.70;1.00;;;;;;;4.51;89.76;100129.15;108186;1274;74891;-78
2022/02/18 01:50:05;;;;;;;3.10;1.30;;;;;;;4.52;89.21;100134.02;108391;1274;72489;-79
2022/02/18 01:52:34;;;;;;;3.80;1.00;;;;;;;4.54;89.27;100138.88;108340;1274;72946;-79
2022/02/18 01:55:10;;;;;;;8.20;1.40;;;;;;;4.56;89.14;100146.75;108417;1274;62925;-79
2022/02/18 01:57:53;;;;;;;3.30;1.10;;;;;;;4.57;89.31;100143.84;108416;1274;61295;-78
2022/02/18 02:00:22;;;;;;;4.60;1.40;;;;;;;4.57;89.06;100133.44;108282;1274;76150;-79
2022/02/18 02:02:50;;;;;;;2.00;1.00;;;;;;;4.57;88.92;100141.54;108401;1274;71343;-79
2022/02/18 02:05:17;;;;;;;6.80;1.70;;;;;;;4.57;89.12;100140.80;108302;1274;73745;-78
2022/02/18 02:07:45;;;;;;;6.60;1.70;;;;;;;4.59;88.65;100138.04;108404;1274;61425;-78
2022/02/18 02:10:13;;;;;;;6.60;1.10;;;;;;;4.59;88.54;100137.63;108290;1274;60082;-78
2022/02/18 02:12:40;;;;;;;4.10;1.40;;;;;;;4.61;88.49;100128.20;108343;1274;75959;-78
2022/02/18 02:15:09;;;;;;;6.40;1.60;;;;;;;4.61;88.26;100128.65;108373;1273;71480;-78
2022/02/18 02:17:37;;;;;;;8.80;1.20;;;;;;;4.61;88.07;100130.23;108358;1273;73077;-79
2022/02/18 02:20:05;;;;;;;8.80;1.40;;;;;;;4.62;87.66;100132.48;108312;1273;61275;-79
2022/02/18 02:22:32;;;;;;;5.00;1.50;;;;;;;4.61;87.87;100123.98;108381;1273;60379;-79
2022/02/18 02:24:59;;;;;;;11.30;1.90;;;;;;;4.59;87.77;100124.48;108408;1273;74646;-79
2022/02/18 02:27:25;;;;;;;5.90;1.00;;;;;;;4.57;87.63;100129.09;108341;1273;72499;-78
2022/02/18 02:29:52;;;;;;;5.80;1.30;;;;;;;4.56;87.65;100129.05;108387;1273;59401;-78
2022/02/18 02:32:21;;;;;;;8.70;1.50;;;;;;;4.52;87.82;100128.86;108418;1273;62438;-79
2022/02/18 02:34:48;;;;;;;5.60;1.30;;;;;;;4.50;87.87;100122.98;108408;1273;61562;-80
2022/02/18 02:37:17;;;;;;;4.30;1.20;;;;;;;4.46;87.77;100118.95;108431;1273;76463;-79
2022/02/18 02:39:44;;;;;;;6.80;1.80;;;;;;;4.42;87.85;100109.02;108328;1274;71508;-78
2022/02/18 02:42:10;;;;;;;9.60;2.10;;;;;;;4.38;88.08;100105.90;108383;1274;74041;-79
2022/02/18 02:44:37;;;;;;;8.80;1.80;;;;;;;4.36;88.17;100102.46;108355;1273;61422;-79
2022/02/18 02:47:03;;;;;;;4.70;1.80;;;;;;;4.33;88.06;100104.61;108368;1274;60381;-79
2022/02/18 02:49:31;;;;;;;5.70;1.80;;;;;;;4.30;87.90;100099.27;108266;1274;76477;-79
2022/02/18 02:51:57;;;;;;;9.00;2.30;;;;;;;4.27;87.82;100096.27;108374;1273;72326;-78
2022/02/18 02:54:24;;;;;;;6.60;2.30;;;;;;;4.24;87.92;100090.64;108377;1273;74015;-79
2022/02/18 02:56:55;;;;;;;8.20;2.70;;;;;;;4.21;88.14;100090.94;108425;1273;61157;-79
2022/02/18 02:59:21;;;;;;;22.30;3.30;;;;;;;4.18;88.38;100088.94;108299;1273;60270;-79
2022/02/18 03:01:48;;;;;;;8.60;2.80;;;;;;;4.16;88.19;100086.69;108406;1273;60752;-79
2022/02/18 03:04:14;;;;;;;4.80;1.80;;;;;;;4.14;88.27;100090.34;108347;1274;71275;-79
2022/02/18 03:06:41;;;;;;;7.70;2.20;;;;;;;4.13;88.34;100092.91;108431;1273;59074;-79
2022/02/18 03:09:12;;;;;;;11.00;2.10;;;;;;;4.13;88.30;100093.45;108357;1273;62373;-78
2022/02/18 03:11:38;;;;;;;6.00;1.90;;;;;;;4.13;88.21;100091.73;108359;1273;61573;-78
2022/02/18 03:14:05;;;;;;;11.40;2.90;;;;;;;4.12;88.40;100093.89;108309;1274;59187;-79
2022/02/18 03:16:31;;;;;;;4.90;2.10;;;;;;;4.13;88.65;100094.09;108367;1273;59130;-78
2022/02/18 03:18:58;;;;;;;9.60;3.20;;;;;;;4.15;88.13;100093.92;108287;1274;59106;-80
2022/02/18 03:21:24;;;;;;;9.40;2.30;;;;;;;4.17;88.27;100095.21;108162;1274;59726;-79
2022/02/18 03:23:51;;;;;;;7.40;2.30;;;;;;;4.17;88.37;100094.25;108422;1273;59144;-79
2022/02/18 03:26:19;;;;;;;8.80;2.10;;;;;;;4.18;88.14;100099.30;108439;1273;59066;-79
2022/02/18 03:28:46;;;;;;;12.80;2.20;;;;;;;4.18;88.40;100109.77;108283;1273;71357;-78
2022/02/18 03:31:12;;;;;;;15.80;3.10;;;;;;;4.19;88.22;100107.79;108414;1273;73376;-78
2022/02/18 03:33:40;;;;;;;5.70;2.10;;;;;;;4.19;88.08;100108.29;108323;1274;59224;-79
2022/02/18 03:36:08;;;;;;;5.70;1.90;;;;;;;4.18;88.35;100114.48;108383;1274;60583;-79
2022/02/18 03:38:36;;;;;;;11.20;2.50;;;;;;;4.17;88.24;100121.61;108384;1273;75981;-79
2022/02/18 03:41:03;;;;;;;10.30;2.40;;;;;;;4.18;88.42;100122.39;108388;1273;71714;-79
2022/02/18 03:43:29;;;;;;;7.30;2.50;;;;;;;4.19;88.71;100124.95;108359;1273;74039;-79
2022/02/18 03:45:55;;;;;;;7.50;1.80;;;;;;;4.20;88.55;100125.80;108403;1273;59422;-79
2022/02/18 03:48:22;;;;;;;8.70;2.40;;;;;;;4.21;88.45;100125.55;108355;1272;59113;-79
2022/02/18 03:50:48;;;;;;;6.80;1.90;;;;;;;4.22;88.60;100120.54;108421;1273;59191;-78
2022/02/18 03:53:15;;;;;;;12.90;2.50;;;;;;;4.23;88.71;100120.14;108351;1274;59226;-78
2022/02/18 03:55:41;;;;;;;9.30;2.50;;;;;;;4.23;88.87;100114.34;108329;1274;59547;-79
2022/02/18 03:58:08;;;;;;;13.30;2.80;;;;;;;4.24;89.03;100116.83;108248;1274;60052;-78
2022/02/18 04:00:35;;;;;;;8.70;2.70;;;;;;;4.25;88.97;100111.32;108314;1274;59541;-79
2022/02/18 04:03:02;;;;;;;9.90;2.80;;;;;;;4.25;88.98;100108.70;108277;1273;74889;-79
2022/02/18 04:05:28;;;;;;;12.20;2.20;;;;;;;4.27;89.24;100111.02;108178;1274;71416;-78
2022/02/18 04:07:54;;;;;;;9.10;2.60;;;;;;;4.28;89.23;100106.00;108352;1273;59053;-79
2022/02/18 04:10:21;;;;;;;12.60;2.80;;;;;;;4.28;89.42;100098.29;108301;1274;59469;-78
2022/02/18 04:12:47;;;;;;;10.00;2.60;;;;;;;4.29;89.72;100104.33;108300;1274;59037;-78
2022/02/18 04:15:14;;;;;;;16.90;3.20;;;;;;;4.30;89.93;100114.39;108362;1273;59914;-79
2022/02/18 04:17:41;;;;;;;5.40;1.60;;;;;;;4.31;89.36;100099.63;108383;1273;72272;-78
2022/02/18 04:20:08;;;;;;;11.50;2.10;;;;;;;4.30;89.49;100105.75;108154;1274;59749;-78
2022/02/18 04:22:55;;;;;;;7.40;2.60;;;;;;;4.31;89.81;100098.67;108288;1274;61070;-78
2022/02/18 04:25:22;;;;;;;7.70;4.20;;;;;;;4.33;90.04;100098.31;108357;1273;61740;-78
2022/02/18 04:27:54;;;;;;;8.70;2.80;;;;;;;4.35;90.11;100095.64;108354;1274;75019;-77
2022/02/18 04:30:20;;;;;;;11.90;2.60;;;;;;;4.38;89.95;100097.50;108327;1273;72748;-77
2022/02/18 04:32:47;;;;;;;15.90;2.70;;;;;;;4.39;89.93;100098.30;108329;1273;74230;-78
2022/02/18 04:35:14;;;;;;;7.40;2.50;;;;;;;4.39;89.77;100100.77;108364;1273;62584;-79
2022/02/18 04:37:41;;;;;;;11.10;2.40;;;;;;;4.40;89.99;100107.05;108384;1273;60525;-78
2022/02/18 04:40:09;;;;;;;7.30;2.50;;;;;;;4.41;89.52;100107.17;108308;1273;59518;-78
2022/02/18 04:42:37;;;;;;;6.90;2.40;;;;;;;4.41;89.76;100106.98;108372;1273;71613;-78
2022/02/18 04:45:04;;;;;;;10.00;2.90;;;;;;;4.41;90.17;100101.18;108259;1272;72882;-78
2022/02/18 04:47:30;;;;;;;7.90;2.70;;;;;;;4.41;89.89;100093.13;108365;1273;61200;-77
2022/02/18 04:49:56;;;;;;;15.40;3.40;;;;;;;4.41;90.20;100092.45;108245;1273;59260;-77
2022/02/18 04:52:23;;;;;;;10.20;2.70;;;;;;;4.41;90.13;100093.46;108203;1274;59177;-77
2022/02/18 04:54:49;;;;;;;12.00;2.90;;;;;;;4.44;90.43;100089.41;108310;1273;59478;-78
2022/02/18 04:57:16;;;;;;;9.40;3.10;;;;;;;4.45;90.22;100083.09;108409;1273;58439;-79
2022/02/18 04:59:42;;;;;;;12.90;3.00;;;;;;;4.46;90.40;100077.30;108357;1272;59143;-78
2022/02/18 05:02:09;;;;;;;11.90;3.70;;;;;;;4.46;90.58;100068.83;108355;1273;59183;-78
2022/02/18 05:04:35;;;;;;;7.40;3.80;;;;;;;4.50;90.93;100068.52;108367;1273;59156;-78
2022/02/18 05:07:02;;;;;;;9.30;1.90;;;;;;;4.52;90.65;100062.33;108415;1274;59278;-78
2022/02/18 05:09:28;;;;;;;9.50;3.30;;;;;;;4.55;90.56;100059.08;108364;1273;58514;-78
2022/02/18 05:11:55;;;;;;;11.80;3.40;;;;;;;4.57;90.61;100053.06;108384;1273;59172;-78
2022/02/18 05:14:21;;;;;;;11.60;4.00;;;;;;;4.59;90.39;100047.83;108287;1273;59225;-78
2022/02/18 05:16:48;;;;;;;14.90;3.70;;;;;;;4.60;90.02;100046.71;108397;1273;59396;-79
2022/02/18 05:19:14;;;;;;;9.70;3.70;;;;;;;4.59;90.41;100044.13;108134;1271;59606;-78
2022/02/18 05:21:41;;;;;;;8.80;3.00;;;;;;;4.60;90.28;100050.16;108394;1273;59596;-78
2022/02/18 05:24:08;;;;;;;8.70;2.50;;;;;;;4.60;90.12;100045.10;108292;1273;60153;-78
2022/02/18 05:26:40;;;;;;;10.00;3.40;;;;;;;4.60;89.99;100040.70;108225;1273;61490;-78
2022/02/18 05:29:06;;;;;;;9.20;2.80;;;;;;;4.60;90.04;100043.89;108380;1273;75777;-79
2022/02/18 05:31:33;;;;;;;10.10;2.90;;;;;;;4.61;90.12;100041.67;108337;1273;59929;-79
2022/02/18 05:33:59;;;;;;;14.40;3.50;;;;;;;4.62;89.95;100034.96;108329;1273;60008;-78
2022/02/18 05:36:27;;;;;;;12.10;4.10;;;;;;;4.62;90.08;100029.52;108409;1273;59379;-79
2022/02/18 05:38:54;;;;;;;9.90;3.10;;;;;;;4.63;90.12;100027.29;108308;1274;60631;-79
2022/02/18 05:41:23;;;;;;;13.10;4.70;;;;;;;4.65;89.98;100015.68;108457;1273;73827;-79
2022/02/18 05:43:50;;;;;;;13.80;4.60;;;;;;;4.66;89.96;100007.35;108458;1273;71493;-79
2022/02/18 05:46:16;;;;;;;8.70;2.80;;;;;;;4.67;90.21;100008.64;108411;1273;73979;-78
2022/02/18 05:48:43;;;;;;;11.20;3.60;;;;;;;4.68;90.24;100012.88;108163;1274;59117;-78
2022/02/18 05:51:09;;;;;;;15.00;4.50;;;;;;;4.70;90.48;100014.84;108407;1273;59494;-79
2022/02/18 05:53:36;;;;;;;12.20;4.50;;;;;;;4.72;90.56;100006.79;108193;1273;59337;-78
2022/02/18 05:56:02;;;;;;;11.80;5.30;;;;;;;4.73;90.70;100005.23;108402;1273;59193;-78
2022/02/18 05:58:31;;;;;;;13.70;5.60;;;;;;;4.76;90.95;100002.56;108381;1273;73965;-78
2022/02/18 06:00:58;;;;;;;14.30;5.30;;;;;;;4.77;90.95;99997.02;108365;1273;61469;-78
2022/02/18 06:03:25;;;;;;;11.30;4.80;;;;;;;4.78;91.13;99991.05;108373;1274;61017;-78
2022/02/18 06:05:51;;;;;;;13.20;5.60;;;;;;;4.80;91.39;99984.45;108422;1273;76209;-79
2022/02/18 06:08:18;;;;;;;13.50;5.10;;;;;;;4.81;91.32;99986.52;108411;1273;70624;-79
2022/02/18 06:10:44;;;;;;;12.50;5.10;;;;;;;4.83;91.33;99975.30;108380;1274;59347;-79
2022/02/18 06:13:11;;;;;;;12.00;5.20;;;;;;;4.85;91.13;99967.56;108364;1273;59482;-78
2022/02/18 06:15:37;;;;;;;14.20;6.10;;;;;;;4.87;91.29;99960.05;108351;1273;59157;-78
2022/02/18 06:18:03;;;;;;;13.90;5.30;;;;;;;4.89;91.25;99955.34;108430;1273;59224;-78
2022/02/18 06:20:30;;;;;;;15.20;6.00;;;;;;;4.90;91.09;99950.98;108387;1273;59078;-78
2022/02/18 06:22:56;;;;;;;10.20;5.20;;;;;;;4.90;91.14;99951.27;108391;1274;59522;-79
2022/02/18 06:25:23;;;;;;;12.90;5.80;;;;;;;4.91;91.04;99948.44;108367;1273;60061;-79
2022/02/18 06:27:49;;;;;;;14.60;5.40;;;;;;;4.90;91.12;99942.55;108355;1274;58576;-79
2022/02/18 06:30:16;;;;;;;14.40;6.10;;;;;;;4.90;90.93;99939.90;108361;1273;59301;-78
2022/02/18 06:32:43;;;;;;;16.30;5.90;;;;;;;4.91;91.19;99938.46;108413;1273;71332;-79
2022/02/18 06:35:10;;;;;;;10.10;5.60;;;;;;;4.94;91.34;99932.52;108432;1273;73922;-82
2022/02/18 06:37:37;;;;;;;21.30;6.70;;;;;;;4.98;91.23;99928.50;108378;1273;61413;-82
2022/02/18 06:40:04;;;;;;;13.20;6.30;;;;;;;5.00;90.90;99929.30;108350;1274;59690;-80
2022/02/18 06:42:31;;;;;;;13.00;6.00;;;;;;;5.02;90.99;99933.62;108222;1274;76117;-81
2022/02/18 06:44:57;;;;;;;15.80;6.90;;;;;;;5.04;91.00;99933.95;108442;1273;59204;-80
2022/02/18 06:47:23;;;;;;;15.10;5.80;;;;;;;5.06;90.90;99928.55;108436;1273;59411;-79
2022/02/18 06:49:50;;;;;;;12.20;6.90;;;;;;;5.08;90.87;99929.54;108367;1273;59287;-81
2022/02/18 06:52:17;;;;;;;16.20;5.60;;;;;;;5.09;90.79;99922.01;108320;1273;59083;-82
2022/02/18 06:54:43;;;;;;;14.30;6.00;;;;;;;5.11;90.92;99917.48;108430;1273;75006;-80
2022/02/18 06:57:10;;;;;;;16.20;7.60;;;;;;;5.14;90.79;99916.86;108382;1274;59816;-83
2022/02/18 06:59:37;;;;;;;18.80;7.50;;;;;;;5.16;90.83;99919.27;108389;1273;73101;-81
2022/02/18 07:02:03;;;;;;;16.00;8.40;;;;;;;5.18;90.68;99918.30;108352;1273;59179;-82
2022/02/18 07:04:30;;;;;;;16.10;5.70;;;;;;;5.22;90.62;99910.23;108252;1274;60486;-82
2022/02/18 07:06:56;;;;;;;14.10;5.60;;;;;;;5.24;90.59;99900.34;108489;1273;59522;-81
2022/02/18 07:09:23;;;;;;;15.50;5.60;;;;;;;5.27;90.63;99895.15;108460;1273;71556;-81
2022/02/18 07:11:49;;;;;;;23.30;7.80;;;;;;;5.29;90.79;99893.65;108435;1273;73156;-80
2022/02/18 07:14:16;;;;;;;15.60;6.60;;;;;;;5.32;90.76;99889.02;108418;1273;59106;-80
2022/02/18 07:16:44;;;;;;;14.40;6.20;;;;;;;5.34;91.10;99884.60;108453;1273;61762;-80
2022/02/18 07:19:12;;;;;;;15.90;7.10;;;;;;;5.36;91.06;99876.68;108324;1273;76792;-79
2022/02/18 07:21:40;;;;;;;14.30;7.90;;;;;;;5.38;91.39;99872.77;108354;1273;72520;-80
2022/02/18 07:24:07;;;;;;;14.80;6.90;;;;;;;5.40;91.36;99869.35;108320;1273;74007;-81
2022/02/18 07:26:34;;;;;;;14.60;6.20;;;;;;;5.44;91.31;99861.48;108396;1273;60973;-79
2022/02/18 07:29:01;;;;;;;15.80;7.30;;;;;;;5.46;91.42;99857.89;108398;1273;60368;-81
2022/02/18 07:31:28;;;;;;;15.10;6.70;;;;;;;5.48;91.47;99853.25;108405;1273;59068;-81
2022/02/18 07:33:54;;;;;;;13.50;5.70;;;;;;;5.50;91.55;99851.70;108243;1274;70586;-79
2022/02/18 07:36:21;;;;;;;13.50;6.10;;;;;;;5.52;91.53;99842.38;108318;1273;74584;-79
2022/02/18 07:38:48;;;;;;;12.90;4.80;;;;;;;5.53;91.44;99837.52;108383;1273;61174;-80
2022/02/18 07:41:14;;;;;;;10.90;5.20;;;;;;;5.54;91.62;99811.98;108252;1273;58385;-80
2022/02/18 07:43:42;;;;;;;9.80;4.00;;;;;;;5.55;91.67;99775.94;108432;1273;59369;-80
2022/02/18 07:46:08;;;;;;;11.00;4.10;;;;;;;5.56;91.57;99760.55;108364;1274;71224;-80
2022/02/18 07:48:36;;;;;;;12.50;5.00;;;;;;;5.57;91.89;99761.90;108456;1273;73967;-78
2022/02/18 07:51:06;;;;;;;14.90;5.70;;;;;;;5.56;91.97;99750.41;108439;1274;62179;-80
2022/02/18 07:53:33;;;;;;;16.90;5.00;;;;;;;5.56;91.92;99743.85;108449;1273;61813;-79
2022/02/18 07:56:00;;;;;;;11.90;4.00;;;;;;;5.57;91.85;99741.84;108522;1273;75080;-79
2022/02/18 07:58:27;;;;;;;13.10;3.90;;;;;;;5.57;91.91;99733.91;108255;1274;72301;-78
2022/02/18 08:00:53;;;;;;;11.90;5.10;;;;;;;5.58;91.82;99722.84;108464;1273;72902;-77
2022/02/18 08:03:20;;;;;;;8.70;4.10;;;;;;;5.59;91.70;99718.30;108491;1273;62150;-78
2022/02/18 08:05:46;;;;;;;12.60;4.40;;;;;;;5.60;91.64;99712.77;108585;1273;61645;-79
2022/02/18 08:08:13;;;;;;;6.90;2.90;;;;;;;5.60;91.62;99711.13;108495;1274;76059;-78
2022/02/18 08:10:40;;;;;;;10.10;4.30;;;;;;;5.61;91.51;99698.08;108552;1273;71631;-79
2022/02/18 08:13:07;;;;;;;12.20;5.30;;;;;;;5.61;91.60;99667.35;108517;1273;74054;-79
2022/02/18 08:15:33;;;;;;;12.00;4.30;;;;;;;5.62;91.58;99647.42;108551;1273;59085;-78
2022/02/18 08:18:00;;;;;;;7.10;2.60;;;;;;;5.63;91.86;99635.45;108543;1273;58876;-78
2022/02/18 08:20:26;;;;;;;13.00;3.50;;;;;;;5.65;91.74;99656.13;108501;1273;59100;-79
2022/02/18 08:22:52;;;;;;;16.00;4.00;;;;;;;5.65;91.75;99648.86;108438;1273;60201;-78
2022/02/18 08:25:19;;;;;;;5.70;3.50;;;;;;;5.68;91.49;99608.85;108513;1273;59485;-78
2022/02/18 08:27:46;;;;;;;11.00;3.80;;;;;;;5.70;91.50;99588.29;108515;1273;59281;-78
2022/02/18 08:30:12;;;;;;;6.50;2.60;;;;;;;5.72;91.38;99589.50;108505;1273;61616;-78
2022/02/18 08:32:39;;;;;;;8.30;3.70;;;;;;;5.74;91.07;99602.48;108503;1273;59696;-80
2022/02/18 08:35:06;;;;;;;7.40;2.80;;;;;;;5.76;90.62;99611.16;108476;1274;59022;-79
2022/02/18 08:37:33;;;;;;;7.00;3.20;;;;;;;5.78;90.41;99607.27;108562;1273;72889;-80
2022/02/18 08:39:59;;;;;;;13.00;3.50;;;;;;;5.79;90.21;99598.39;108571;1273;61602;-80
2022/02/18 08:42:26;;;;;;;6.20;2.70;;;;;;;5.81;90.08;99600.66;108580;1273;60533;-79
2022/02/18 08:44:52;;;;;;;8.60;3.70;;;;;;;5.84;90.02;99600.20;108570;1273;74916;-82
2022/02/18 08:47:19;;;;;;;9.90;4.30;;;;;;;5.85;89.64;99604.21;108561;1272;59210;-78
2022/02/18 08:49:45;;;;;;;6.30;2.70;;;;;;;5.87;89.66;99601.67;108535;1273;58780;-80
2022/02/18 08:52:12;;;;;;;7.80;3.00;;;;;;;5.89;89.48;99594.27;108492;1274;59241;-80
2022/02/18 08:54:39;;;;;;;6.90;3.50;;;;;;;5.92;89.32;99594.18;108554;1273;60660;-80
2022/02/18 08:57:06;;;;;;;7.70;2.40;;;;;;;5.94;89.18;99588.54;108509;1273;76032;-80
2022/02/18 08:59:32;;;;;;;15.40;3.00;;;;;;;5.95;88.68;99574.33;108537;1273;71778;-77
2022/02/18 09:01:59;;;;;;;7.00;2.00;;;;;;;5.98;88.43;99563.23;108493;1274;72596;-77
2022/02/18 09:04:26;;;;;;;4.10;1.40;;;;;;;5.99;88.17;99548.31;108475;1273;61440;-78
2022/02/18 09:06:52;;;;;;;7.10;2.50;;;;;;;6.01;87.64;99535.07;108464;1274;59025;-78
2022/02/18 09:09:19;;;;;;;6.00;2.00;;;;;;;6.04;87.78;99526.14;108535;1273;59224;-79
2022/02/18 09:11:45;;;;;;;7.50;2.30;;;;;;;6.06;87.33;99532.11;108491;1273;59154;-77
2022/02/18 09:14:15;;;;;;;5.60;1.90;;;;;;;6.08;87.48;99532.49;108519;1272;73070;-78
2022/02/18 09:16:44;;;;;;;9.40;2.50;;;;;;;6.11;87.40;99530.11;108502;1273;61571;-77
2022/02/18 09:19:11;;;;;;;7.00;2.30;;;;;;;6.13;87.45;99525.61;108446;1273;61839;-78
2022/02/18 09:21:37;;;;;;;5.30;2.20;;;;;;;6.16;87.27;99517.14;108483;1274;75970;-78
2022/02/18 09:24:04;;;;;;;8.60;2.00;;;;;;;6.17;87.22;99510.83;108469;1274;58903;-77
2022/02/18 09:26:30;;;;;;;6.10;2.40;;;;;;;6.18;86.99;99500.55;108499;1273;75526;-79
2022/02/18 09:28:57;;;;;;;5.80;2.10;;;;;;;6.19;86.89;99482.66;108502;1273;61387;-80
2022/02/18 09:31:24;;;;;;;6.60;2.10;;;;;;;6.21;86.91;99470.90;108560;1274;59030;-80
2022/02/18 09:33:53;;;;;;;6.00;1.90;;;;;;;6.23;86.64;99459.06;108248;1274;75041;-79
2022/02/18 09:36:19;;;;;;;8.40;2.20;;;;;;;6.27;86.25;99457.52;108503;1274;71428;-79
2022/02/18 09:38:46;;;;;;;4.70;1.80;;;;;;;6.33;85.47;99445.12;108557;1273;71813;-79
2022/02/18 09:41:13;;;;;;;14.90;2.00;;;;;;;6.38;84.90;99429.92;108442;1273;60571;-78
2022/02/18 09:43:41;;;;;;;4.70;1.40;;;;;;;6.45;84.93;99427.55;108463;1273;61694;-76
2022/02/18 09:46:09;;;;;;;12.10;2.70;;;;;;;6.50;84.78;99422.46;108534;1273;74809;-77
2022/02/18 09:48:37;;;;;;;7.10;2.00;;;;;;;6.56;84.35;99422.63;108468;1274;72403;-79
2022/02/18 09:51:04;;;;;;;7.90;1.50;;;;;;;6.60;83.92;99413.34;108518;1273;72867;-80
2022/02/18 09:53:31;;;;;;;9.50;2.30;;;;;;;6.63;83.96;99409.56;108479;1274;62602;-79
2022/02/18 09:56:00;;;;;;;14.20;2.60;;;;;;;6.66;83.73;99399.38;108493;1273;60636;-78
2022/02/18 09:58:27;;;;;;;7.10;1.30;;;;;;;6.69;83.36;99391.32;108447;1273;76065;-78
2022/02/18 10:00:53;;;;;;;6.70;1.60;;;;;;;6.71;84.04;99375.67;108473;1274;71208;-79
2022/02/18 10:03:20;;;;;;;8.50;1.50;;;;;;;6.70;84.74;99356.73;108466;1273;73947;-79
2022/02/18 10:05:47;;;;;;;6.60;1.70;;;;;;;6.68;85.36;99352.25;108478;1274;61399;-79
2022/02/18 10:08:15;;;;;;;6.90;1.50;;;;;;;6.66;85.54;99340.55;108399;1274;60605;-79
2022/02/18 10:10:56;;;;;;;7.90;1.70;;;;;;;6.64;85.88;99337.28;108543;1273;76229;-79
2022/02/18 10:13:39;;;;;;;6.80;1.90;;;;;;;6.62;86.38;99327.05;108617;1273;71390;-80
2022/02/18 10:16:18;;;;;;;5.60;1.40;;;;;;;6.59;86.93;99316.52;108414;1274;72995;-80
2022/02/18 10:18:52;;;;;;;9.00;1.80;;;;;;;6.53;87.52;99306.50;108555;1273;61108;-78
2022/02/18 10:21:39;;;;;;;9.10;1.30;;;;;;;6.46;88.60;99299.88;108518;1273;59730;-80
2022/02/18 10:24:13;;;;;;;7.30;1.40;;;;;;;6.38;89.46;99296.25;108552;1273;74719;-80
2022/02/18 10:26:42;;;;;;;10.00;1.30;;;;;;;6.32;90.30;99291.02;108518;1273;72393;-80
2022/02/18 10:29:17;;;;;;;4.40;1.20;;;;;;;6.26;91.45;99279.14;108597;1273;72603;-80
2022/02/18 10:31:43;;;;;;;6.50;1.90;;;;;;;6.19;92.41;99270.23;108496;1273;62957;-80
2022/02/18 10:34:11;;;;;;;10.10;1.30;;;;;;;6.14;92.85;99266.79;108571;1274;60498;-80
2022/02/18 10:36:45;;;;;;;6.60;1.20;;;;;;;6.10;93.48;99252.16;108493;1273;72568;-78
2022/02/18 10:39:24;;;;;;;6.00;1.60;;;;;;;6.06;94.32;99251.05;108501;1272;72727;-77
2022/02/18 10:42:01;;;;;;;4.70;1.10;;;;;;;6.04;94.16;99232.59;108459;1273;72038;-76
2022/02/18 10:44:35;;;;;;;3.90;0.70;;;;;;;6.01;95.59;99215.04;108497;1274;61408;-77
2022/02/18 10:47:06;;;;;;;6.00;1.40;;;;;;;5.97;96.14;99212.86;108522;1273;60593;-79
2022/02/18 10:49:43;;;;;;;8.40;1.70;;;;;;;5.95;97.04;99194.30;108521;1273;74946;-77
2022/02/18 10:52:14;;;;;;;7.50;1.90;;;;;;;5.92;97.29;99181.85;108550;1273;72461;-79
2022/02/18 10:54:41;;;;;;;11.10;1.30;;;;;;;5.91;97.52;99187.02;108459;1273;72975;-79
2022/02/18 10:57:24;;;;;;;6.80;1.70;;;;;;;5.91;97.07;99185.45;108490;1273;61477;-79
2022/02/18 10:59:54;;;;;;;7.90;1.50;;;;;;;5.92;97.52;99171.90;108448;1274;61768;-79
2022/02/18 11:02:41;;;;;;;11.60;1.80;;;;;;;5.95;98.52;99145.19;108502;1274;74646;-76
2022/02/18 11:05:21;;;;;;;13.20;1.60;;;;;;;5.97;98.60;99132.20;108432;1273;71207;-77
2022/02/18 11:07:53;;;;;;;6.10;1.50;;;;;;;5.98;98.26;99130.18;108564;1273;74310;-76
2022/02/18 11:10:33;;;;;;;12.80;2.10;;;;;;;6.04;98.20;99127.98;108533;1273;62455;-76
2022/02/18 11:13:00;;;;;;;4.80;1.20;;;;;;;6.11;98.38;99111.46;108450;1273;60584;-77
2022/02/18 11:15:27;;;;;;;8.40;1.30;;;;;;;6.17;98.80;99088.48;108476;1273;75113;-76
2022/02/18 11:17:58;;;;;;;15.30;2.10;;;;;;;6.23;98.61;99085.14;108559;1273;72655;-79
2022/02/18 11:20:26;;;;;;;8.40;1.90;;;;;;;6.33;98.54;99072.64;108426;1273;74395;-78
2022/02/18 11:22:54;;;;;;;11.80;1.80;;;;;;;6.42;98.49;99073.27;108472;1274;62593;-76
2022/02/18 11:25:22;;;;;;;10.40;1.50;;;;;;;6.54;98.25;99059.19;108393;1274;59358;-78
2022/02/18 11:27:51;;;;;;;5.40;1.40;;;;;;;6.66;98.10;99056.73;108503;1273;74990;-78
2022/02/18 11:30:18;;;;;;;13.00;2.00;;;;;;;6.80;97.35;99047.82;108485;1274;71488;-78